createdAt,value
2023-03-17T00:00:39.985Z,0.8
2023-03-17T00:01:37.965Z,0.6
2023-03-17T00:02:39.573Z,0.8
2023-03-17T00:03:39.616Z,1.9
2023-03-17T00:04:38.525Z,0.9
2023-03-17T00:05:38.117Z,0.7
2023-03-17T00:06:38.020Z,1.2
2023-03-17T00:07:38.642Z,0.8
2023-03-17T00:08:38.412Z,0.9
2023-03-17T00:09:38.153Z,1.4
2023-03-17T00:10:38.031Z,1.2
2023-03-17T00:11:38.733Z,1.0
2023-03-17T00:12:38.520Z,1.1
2023-03-17T00:13:38.564Z,2.1
2023-03-17T00:14:38.140Z,0.8
2023-03-17T00:15:38.020Z,0.9
2023-03-17T00:16:39.933Z,0.6
2023-03-17T00:17:38.610Z,1.2
2023-03-17T00:18:38.262Z,1.4
2023-03-17T00:19:38.115Z,1.0
2023-03-17T00:20:38.792Z,0.4
2023-03-17T00:21:38.566Z,0.9
2023-03-17T00:22:38.333Z,1.5
2023-03-17T00:23:38.221Z,1.2
2023-03-17T00:24:37.994Z,1.2
2023-03-17T00:25:38.593Z,0.8
2023-03-17T00:26:38.389Z,0.5
2023-03-17T00:27:38.242Z,1.2
2023-03-17T00:28:38.101Z,0.6
2023-03-17T00:29:38.078Z,0.7
2023-03-17T00:30:38.612Z,0.2
2023-03-17T00:31:38.538Z,0.6
2023-03-17T00:32:38.462Z,0.8
2023-03-17T00:33:38.275Z,0.9
2023-03-17T00:34:38.644Z,0.7
2023-03-17T00:35:38.597Z,0.5
2023-03-17T00:36:38.235Z,0.8
2023-03-17T00:37:38.048Z,1.3
2023-03-17T00:38:37.816Z,0.4
2023-03-17T00:39:38.799Z,0.2
2023-03-17T00:40:38.382Z,1.5
2023-03-17T00:41:38.171Z,1.0
2023-03-17T00:42:38.056Z,0.9
2023-03-17T00:43:39.040Z,1.6
2023-03-17T00:44:38.450Z,1.0
2023-03-17T00:45:38.903Z,1.1
2023-03-17T00:46:38.542Z,0.6
2023-03-17T00:47:38.883Z,1.4
2023-03-17T00:48:38.613Z,0.6
2023-03-17T00:49:38.453Z,0.8
2023-03-17T00:50:38.192Z,0.9
2023-03-17T00:51:38.023Z,0.6
2023-03-17T00:52:38.756Z,0.9
2023-03-17T00:53:38.547Z,0.5
2023-03-17T00:54:38.303Z,0.9
2023-03-17T00:55:38.330Z,1.2
2023-03-17T00:56:38.587Z,1.9
2023-03-17T00:57:39.303Z,1.2
2023-03-17T00:58:38.403Z,1.6
2023-03-17T00:59:39.535Z,1.0
2023-03-17T01:00:38.094Z,0.4
2023-03-17T01:01:38.698Z,1.2
2023-03-17T01:02:38.471Z,0.4
2023-03-17T01:03:38.589Z,0.1
2023-03-17T01:04:38.091Z,0.7
2023-03-17T01:05:38.741Z,0.7
2023-03-17T01:06:38.877Z,1.4
2023-03-17T01:07:39.075Z,0.7
2023-03-17T01:08:38.891Z,1.3
2023-03-17T01:09:38.185Z,0.6
2023-03-17T01:10:38.356Z,0.9
2023-03-17T01:11:38.545Z,0.7
2023-03-17T01:12:38.359Z,0.5
2023-03-17T01:13:38.136Z,0.8
2023-03-17T01:14:38.200Z,0.5
2023-03-17T01:15:40.817Z,1.1
2023-03-17T01:16:38.613Z,1.1
2023-03-17T01:17:38.499Z,0.8
2023-03-17T01:18:38.120Z,0.5
2023-03-17T01:19:37.864Z,0.9
2023-03-17T01:20:38.587Z,0.6
2023-03-17T01:21:38.774Z,0.7
2023-03-17T01:22:38.132Z,0.5
2023-03-17T01:23:38.000Z,0.6
2023-03-17T01:24:38.999Z,0.7
2023-03-17T01:25:39.373Z,1.6
2023-03-17T01:26:38.323Z,1.6
2023-03-17T01:27:38.516Z,0.5
2023-03-17T01:28:37.976Z,0.6
2023-03-17T01:29:38.610Z,1.2
2023-03-17T01:30:38.804Z,0.9
2023-03-17T01:31:38.236Z,0.1
2023-03-17T01:32:38.048Z,0.7
2023-03-17T01:33:38.719Z,0.4
2023-03-17T01:34:38.544Z,0.5
2023-03-17T01:35:38.704Z,0.6
2023-03-17T01:36:38.201Z,0.7
2023-03-17T01:37:38.544Z,1.2
2023-03-17T01:38:38.613Z,0.9
2023-03-17T01:39:38.411Z,0.9
2023-03-17T01:40:42.262Z,0.3
2023-03-17T01:41:38.167Z,1.6
2023-03-17T01:42:39.090Z,1.7
2023-03-17T01:43:38.606Z,0.8
2023-03-17T01:44:56.553Z,1.1
2023-03-17T01:45:56.671Z,1.1
2023-03-17T01:46:38.861Z,1.0
2023-03-17T01:47:38.674Z,1.7
2023-03-17T01:48:42.967Z,1.9
2023-03-17T01:49:38.479Z,1.2
2023-03-17T01:50:38.138Z,0.8
2023-03-17T01:51:48.626Z,0.4
2023-03-17T01:52:38.913Z,0.9
2023-03-17T01:53:38.760Z,0.5
2023-03-17T01:54:43.092Z,1.7
2023-03-17T01:55:38.710Z,1.5
2023-03-17T01:56:40.389Z,1.4
2023-03-17T01:57:41.983Z,1.3
2023-03-17T01:58:38.398Z,0.8
2023-03-17T01:59:41.368Z,0.8
2023-03-17T02:00:38.368Z,0.7
2023-03-17T02:01:41.437Z,0.9
2023-03-17T02:02:39.967Z,1.2
2023-03-17T02:03:38.378Z,2.2
2023-03-17T02:04:38.732Z,0.7
2023-03-17T02:05:38.670Z,0.5
2023-03-17T02:06:55.124Z,1.1
2023-03-17T02:07:39.120Z,1.5
2023-03-17T02:08:38.168Z,0.7
2023-03-17T02:09:38.086Z,1.0
2023-03-17T02:10:39.334Z,0.9
2023-03-17T02:11:38.795Z,1.2
2023-03-17T02:12:40.008Z,0.9
2023-03-17T02:13:38.153Z,0.5
2023-03-17T02:14:37.981Z,1.8
2023-03-17T02:15:48.379Z,0.8
2023-03-17T02:16:38.406Z,1.4
2023-03-17T02:17:38.157Z,1.4
2023-03-17T02:18:37.990Z,0.6
2023-03-17T02:19:38.672Z,1.0
2023-03-17T02:20:43.360Z,1.1
2023-03-17T02:21:42.112Z,1.7
2023-03-17T02:22:38.097Z,0.8
2023-03-17T02:23:38.148Z,0.9
2023-03-17T02:24:43.436Z,1.4
2023-03-17T02:25:38.815Z,1.2
2023-03-17T02:26:38.206Z,0.8
2023-03-17T02:27:40.465Z,0.6
2023-03-17T02:28:38.835Z,0.9
2023-03-17T02:29:38.670Z,1.1
2023-03-17T02:30:38.691Z,0.5
2023-03-17T02:31:38.215Z,0.6
2023-03-17T02:32:38.068Z,0.1
2023-03-17T02:33:38.675Z,1.3
2023-03-17T02:34:38.700Z,0.7
2023-03-17T02:35:38.960Z,1.1
2023-03-17T02:36:38.184Z,0.6
2023-03-17T02:37:37.863Z,1.2
2023-03-17T02:38:38.595Z,0.8
2023-03-17T02:39:38.426Z,1.1
2023-03-17T02:40:38.196Z,0.6
2023-03-17T02:41:38.094Z,0.8
2023-03-17T02:42:38.928Z,0.8
2023-03-17T02:43:38.461Z,1.8
2023-03-17T02:44:38.341Z,0.6
2023-03-17T02:45:38.130Z,0.9
2023-03-17T02:46:37.939Z,0.8
2023-03-17T02:47:38.889Z,1.0
2023-03-17T02:48:38.728Z,0.9
2023-03-17T02:49:39.505Z,0.7
2023-03-17T02:50:38.167Z,0.8
2023-03-17T02:51:37.878Z,2.0
2023-03-17T02:52:38.514Z,1.3
2023-03-17T02:53:38.346Z,0.4
2023-03-17T02:54:38.316Z,2.0
2023-03-17T02:55:38.098Z,0.9
2023-03-17T02:56:38.779Z,0.7
2023-03-17T02:57:38.585Z,0.5
2023-03-17T02:58:38.306Z,1.1
2023-03-17T02:59:38.122Z,0.8
2023-03-17T03:00:37.934Z,0.9
2023-03-17T03:01:38.697Z,0.9
2023-03-17T03:02:38.439Z,0.6
2023-03-17T03:03:38.159Z,1.1
2023-03-17T03:04:37.998Z,0.8
2023-03-17T03:05:38.694Z,1.0
2023-03-17T03:06:38.574Z,0.8
2023-03-17T03:07:38.353Z,1.0
2023-03-17T03:08:38.221Z,0.5
2023-03-17T03:09:38.015Z,0.9
2023-03-17T03:10:38.642Z,0.6
2023-03-17T03:11:38.627Z,1.3
2023-03-17T03:12:38.343Z,0.8
2023-03-17T03:13:38.026Z,1.1
2023-03-17T03:14:38.816Z,1.2
2023-03-17T03:15:42.083Z,0.8
2023-03-17T03:16:38.552Z,0.5
2023-03-17T03:17:38.253Z,0.6
2023-03-17T03:18:38.091Z,0.4
2023-03-17T03:19:38.667Z,0.4
2023-03-17T03:20:40.815Z,0.7
2023-03-17T03:21:38.546Z,0.7
2023-03-17T03:22:38.119Z,1.2
2023-03-17T03:23:37.942Z,1.3
2023-03-17T03:24:38.647Z,1.0
2023-03-17T03:25:38.621Z,0.6
2023-03-17T03:26:38.295Z,1.3
2023-03-17T03:27:38.117Z,0.9
2023-03-17T03:28:37.915Z,1.0
2023-03-17T03:29:38.595Z,0.6
2023-03-17T03:30:38.341Z,1.3
2023-03-17T03:31:38.175Z,0.8
2023-03-17T03:32:38.056Z,0.3
2023-03-17T03:33:39.287Z,1.3
2023-03-17T03:34:38.531Z,1.6
2023-03-17T03:35:38.388Z,1.4
2023-03-17T03:36:38.115Z,0.9
2023-03-17T03:37:37.919Z,0.9
2023-03-17T03:38:38.586Z,0.4
2023-03-17T03:39:38.409Z,0.6
2023-03-17T03:40:38.511Z,1.1
2023-03-17T03:41:38.013Z,1.4
2023-03-17T03:42:38.734Z,1.6
2023-03-17T03:43:38.580Z,0.1
2023-03-17T03:44:38.401Z,0.8
2023-03-17T03:45:38.269Z,1.5
2023-03-17T03:46:38.075Z,1.1
2023-03-17T03:47:38.593Z,1.5
2023-03-17T03:48:38.389Z,1.0
2023-03-17T03:49:38.278Z,0.9
2023-03-17T03:50:38.044Z,1.1
2023-03-17T03:51:38.748Z,1.5
2023-03-17T03:52:38.541Z,1.1
2023-03-17T03:53:38.381Z,0.8
2023-03-17T03:54:38.199Z,2.0
2023-03-17T03:55:38.055Z,2.0
2023-03-17T03:56:38.632Z,0.8
2023-03-17T03:57:38.436Z,1.1
2023-03-17T03:58:38.245Z,0.7
2023-03-17T03:59:38.169Z,1.4
2023-03-17T04:00:37.951Z,1.4
2023-03-17T04:01:38.602Z,1.4
2023-03-17T04:02:38.570Z,1.2
2023-03-17T04:03:38.274Z,0.9
2023-03-17T04:04:38.123Z,1.0
2023-03-17T04:05:38.675Z,1.1
2023-03-17T04:06:38.491Z,0.5
2023-03-17T04:07:38.501Z,1.1
2023-03-17T04:08:38.112Z,0.6
2023-03-17T04:09:38.018Z,1.0
2023-03-17T04:10:38.717Z,1.2
2023-03-17T04:11:38.472Z,0.9
2023-03-17T04:12:38.532Z,0.6
2023-03-17T04:13:38.126Z,1.4
2023-03-17T04:14:37.940Z,1.2
2023-03-17T04:15:38.637Z,1.3
2023-03-17T04:16:38.369Z,1.4
2023-03-17T04:17:38.209Z,0.9
2023-03-17T04:18:38.061Z,0.9
2023-03-17T04:19:38.777Z,1.3
2023-03-17T04:20:38.534Z,1.8
2023-03-17T04:21:38.364Z,0.7
2023-03-17T04:22:38.468Z,0.5
2023-03-17T04:23:37.963Z,0.7
2023-03-17T04:24:38.629Z,1.4
2023-03-17T04:25:38.455Z,0.6
2023-03-17T04:26:38.255Z,1.3
2023-03-17T04:27:38.127Z,1.4
2023-03-17T04:28:38.963Z,1.1
2023-03-17T04:29:38.579Z,0.7
2023-03-17T04:30:38.410Z,0.9
2023-03-17T04:31:38.219Z,0.6
2023-03-17T04:32:38.005Z,0.4
2023-03-17T04:33:38.634Z,1.2
2023-03-17T04:34:38.977Z,1.4
2023-03-17T04:35:38.441Z,0.8
2023-03-17T04:36:38.154Z,0.8
2023-03-17T04:37:37.888Z,1.0
2023-03-17T04:38:38.662Z,0.5
2023-03-17T04:39:38.473Z,0.6
2023-03-17T04:40:38.402Z,1.9
2023-03-17T04:41:38.220Z,0.9
2023-03-17T04:42:38.709Z,0.9
2023-03-17T04:43:38.555Z,0.4
2023-03-17T04:44:38.340Z,1.6
2023-03-17T04:45:38.204Z,0.9
2023-03-17T04:46:37.937Z,0.8
2023-03-17T04:47:38.667Z,1.3
2023-03-17T04:48:38.512Z,1.1
2023-03-17T04:49:38.344Z,1.1
2023-03-17T04:50:38.107Z,0.5
2023-03-17T04:51:37.937Z,0.1
2023-03-17T04:52:38.579Z,1.2
2023-03-17T04:53:38.392Z,1.4
2023-03-17T04:54:38.168Z,0.3
2023-03-17T04:55:37.959Z,0.8
2023-03-17T04:56:38.975Z,0.8
2023-03-17T04:57:38.513Z,1.0
2023-03-17T04:58:38.315Z,1.2
2023-03-17T04:59:38.118Z,1.4
2023-03-17T05:00:37.928Z,1.2
2023-03-17T05:01:39.298Z,1.2
2023-03-17T05:02:38.435Z,0.6
2023-03-17T05:03:38.200Z,0.5
2023-03-17T05:04:37.963Z,1.0
2023-03-17T05:05:38.689Z,0.9
2023-03-17T05:06:38.677Z,0.8
2023-03-17T05:07:38.424Z,1.2
2023-03-17T05:08:38.218Z,0.9
2023-03-17T05:09:37.964Z,1.3
2023-03-17T05:10:38.592Z,1.5
2023-03-17T05:11:38.426Z,0.8
2023-03-17T05:12:38.291Z,1.4
2023-03-17T05:13:38.069Z,0.4
2023-03-17T05:14:38.806Z,0.9
2023-03-17T05:15:38.846Z,1.0
2023-03-17T05:16:38.427Z,0.9
2023-03-17T05:17:38.148Z,0.9
2023-03-17T05:18:38.038Z,1.2
2023-03-17T05:19:38.620Z,1.0
2023-03-17T05:20:38.465Z,0.9
2023-03-17T05:21:38.324Z,0.4
2023-03-17T05:22:38.189Z,1.1
2023-03-17T05:23:38.670Z,0.8
2023-03-17T05:24:38.560Z,0.9
2023-03-17T05:25:38.480Z,1.0
2023-03-17T05:26:38.359Z,1.7
2023-03-17T05:27:38.030Z,1.3
2023-03-17T05:28:37.858Z,0.5
2023-03-17T05:29:38.587Z,1.5
2023-03-17T05:30:38.393Z,0.8
2023-03-17T05:31:38.154Z,0.8
2023-03-17T05:32:38.050Z,0.9
2023-03-17T05:33:38.685Z,1.5
2023-03-17T05:34:38.490Z,1.0
2023-03-17T05:35:38.314Z,1.0
2023-03-17T05:36:38.083Z,0.7
2023-03-17T05:37:37.969Z,1.0
2023-03-17T05:38:38.537Z,1.1
2023-03-17T05:39:38.437Z,0.9
2023-03-17T05:40:38.249Z,0.7
2023-03-17T05:41:37.970Z,0.9
2023-03-17T05:42:38.739Z,0.4
2023-03-17T05:43:38.530Z,1.1
2023-03-17T05:44:38.518Z,1.2
2023-03-17T05:45:38.179Z,0.7
2023-03-17T05:46:38.035Z,1.0
2023-03-17T05:47:38.611Z,0.9
2023-03-17T05:48:38.411Z,1.1
2023-03-17T05:49:38.223Z,2.0
2023-03-17T05:50:38.548Z,0.2
2023-03-17T05:51:38.799Z,1.2
2023-03-17T05:52:38.699Z,1.3
2023-03-17T05:53:38.411Z,0.8
2023-03-17T05:54:38.171Z,0.9
2023-03-17T05:55:38.002Z,1.5
2023-03-17T05:56:38.662Z,0.7
2023-03-17T05:57:38.460Z,0.4
2023-03-17T05:58:38.323Z,0.6
2023-03-17T05:59:38.095Z,0.3
2023-03-17T06:00:37.891Z,0.7
2023-03-17T06:01:38.600Z,0.9
2023-03-17T06:02:38.572Z,1.2
2023-03-17T06:03:38.365Z,1.1
2023-03-17T06:04:38.142Z,0.5
2023-03-17T06:05:38.711Z,0.8
2023-03-17T06:06:38.532Z,0.5
2023-03-17T06:07:51.535Z,0.9
2023-03-17T06:08:38.179Z,1.3
2023-03-17T06:09:37.959Z,1.4
2023-03-17T06:10:38.758Z,1.2
2023-03-17T06:11:38.464Z,1.0
2023-03-17T06:12:38.606Z,1.5
2023-03-17T06:13:40.541Z,1.4
2023-03-17T06:14:37.869Z,0.9
2023-03-17T06:15:38.571Z,0.9
2023-03-17T06:16:38.301Z,1.0
2023-03-17T06:17:38.095Z,1.5
2023-03-17T06:18:37.972Z,0.7
2023-03-17T06:19:38.835Z,0.2
2023-03-17T06:20:38.464Z,0.9
2023-03-17T06:21:38.240Z,1.3
2023-03-17T06:22:42.356Z,0.5
2023-03-17T06:23:38.167Z,0.5
2023-03-17T06:24:38.593Z,0.9
2023-03-17T06:25:38.428Z,1.4
2023-03-17T06:26:38.186Z,1.2
2023-03-17T06:27:38.036Z,1.3
2023-03-17T06:28:38.724Z,0.8
2023-03-17T06:29:38.627Z,0.6
2023-03-17T06:30:40.496Z,1.9
2023-03-17T06:31:38.640Z,0.6
2023-03-17T06:32:37.915Z,0.7
2023-03-17T06:33:38.582Z,0.7
2023-03-17T06:34:38.347Z,0.8
2023-03-17T06:35:38.284Z,0.9
2023-03-17T06:36:38.676Z,0.8
2023-03-17T06:37:38.782Z,1.0
2023-03-17T06:38:38.888Z,1.9
2023-03-17T06:39:38.397Z,0.9
2023-03-17T06:40:38.246Z,0.8
2023-03-17T06:41:38.399Z,0.9
2023-03-17T06:42:38.648Z,0.4
2023-03-17T06:43:38.450Z,0.5
2023-03-17T06:44:38.219Z,0.0
2023-03-17T06:45:38.255Z,0.8
2023-03-17T06:46:38.884Z,1.6
2023-03-17T06:47:38.614Z,0.8
2023-03-17T06:48:38.399Z,0.7
2023-03-17T06:49:38.160Z,0.7
2023-03-17T06:50:37.986Z,0.8
2023-03-17T06:51:39.206Z,0.8
2023-03-17T06:52:38.805Z,0.3
2023-03-17T06:53:38.277Z,0.8
2023-03-17T06:54:38.111Z,1.3
2023-03-17T06:55:38.007Z,1.0
2023-03-17T06:56:38.638Z,0.7
2023-03-17T06:57:38.488Z,0.2
2023-03-17T06:58:38.277Z,1.0
2023-03-17T06:59:38.108Z,1.1
2023-03-17T07:00:38.715Z,1.4
2023-03-17T07:01:38.524Z,0.7
2023-03-17T07:02:38.647Z,1.1
2023-03-17T07:03:38.600Z,1.6
2023-03-17T07:04:37.907Z,0.4
2023-03-17T07:05:38.613Z,0.9
2023-03-17T07:06:38.408Z,0.8
2023-03-17T07:07:38.333Z,1.1
2023-03-17T07:08:38.054Z,1.1
2023-03-17T07:09:38.680Z,1.1
2023-03-17T07:10:40.452Z,0.6
2023-03-17T07:11:38.259Z,1.3
2023-03-17T07:12:38.144Z,0.7
2023-03-17T07:13:37.941Z,0.7
2023-03-17T07:14:38.686Z,0.9
2023-03-17T07:15:38.420Z,0.6
2023-03-17T07:16:38.438Z,0.6
2023-03-17T07:17:38.124Z,0.8
2023-03-17T07:18:38.740Z,0.6
2023-03-17T07:19:38.512Z,1.1
2023-03-17T07:20:38.353Z,1.1
2023-03-17T07:21:38.116Z,0.4
2023-03-17T07:22:37.920Z,0.0
2023-03-17T07:23:38.642Z,1.0
2023-03-17T07:24:38.871Z,0.5
2023-03-17T07:25:38.246Z,0.4
2023-03-17T07:26:38.047Z,0.8
2023-03-17T07:27:38.091Z,1.1
2023-03-17T07:28:38.538Z,1.4
2023-03-17T07:29:38.396Z,0.8
2023-03-17T07:30:38.168Z,0.5
2023-03-17T07:31:39.146Z,1.6
2023-03-17T07:32:38.742Z,2.9
2023-03-17T07:33:38.666Z,3.5
2023-03-17T07:34:38.395Z,3.9
2023-03-17T07:35:38.371Z,3.1
2023-03-17T07:36:37.973Z,2.2
2023-03-17T07:37:38.576Z,4.9
2023-03-17T07:38:38.348Z,3.0
2023-03-17T07:39:38.187Z,5.7
2023-03-17T07:40:38.119Z,5.2
2023-03-17T07:41:38.750Z,5.3
2023-03-17T07:42:38.543Z,5.1
2023-03-17T07:43:38.395Z,6.0
2023-03-17T07:44:38.263Z,8.8
2023-03-17T07:45:38.190Z,9.4
2023-03-17T07:46:38.746Z,6.4
2023-03-17T07:47:38.500Z,6.5
2023-03-17T07:48:38.863Z,6.8
2023-03-17T07:49:41.115Z,7.4
2023-03-17T07:50:37.938Z,6.4
2023-03-17T07:51:38.183Z,5.7
2023-03-17T07:52:37.933Z,5.4
2023-03-17T07:53:38.644Z,6.0
2023-03-17T07:54:40.130Z,6.4
2023-03-17T07:55:38.259Z,6.9
2023-03-17T07:56:38.202Z,7.3
2023-03-17T07:57:38.468Z,5.5
2023-03-17T07:58:38.555Z,5.7
2023-03-17T07:59:38.366Z,6.3
2023-03-17T08:00:38.216Z,6.4
2023-03-17T08:01:38.148Z,5.5
2023-03-17T08:02:38.950Z,4.1
2023-03-17T08:03:41.176Z,4.8
2023-03-17T08:04:38.343Z,4.7
2023-03-17T08:05:38.213Z,4.7
2023-03-17T08:06:38.493Z,5.7
2023-03-17T08:07:38.671Z,5.2
2023-03-17T08:08:38.447Z,7.4
2023-03-17T08:09:38.272Z,6.2
2023-03-17T08:10:38.079Z,4.9
2023-03-17T08:11:38.750Z,4.4
2023-03-17T08:12:38.879Z,4.8
2023-03-17T08:13:38.413Z,5.0
2023-03-17T08:14:38.165Z,6.5
2023-03-17T08:15:37.988Z,4.7
2023-03-17T08:16:38.767Z,4.0
2023-03-17T08:17:39.077Z,5.2
2023-03-17T08:18:40.482Z,5.6
2023-03-17T08:19:38.288Z,5.4
2023-03-17T08:20:37.983Z,5.5
2023-03-17T08:21:38.637Z,4.5
2023-03-17T08:22:37.909Z,5.5
2023-03-17T08:23:38.705Z,4.6
2023-03-17T08:24:38.808Z,5.0
2023-03-17T08:25:38.306Z,4.8
2023-03-17T08:26:38.197Z,4.1
2023-03-17T08:27:37.944Z,4.2
2023-03-17T08:28:38.728Z,5.0
2023-03-17T08:29:38.536Z,4.7
2023-03-17T08:30:38.522Z,6.1
2023-03-17T08:31:38.066Z,4.2
2023-03-17T08:32:38.775Z,4.1
2023-03-17T08:33:39.308Z,3.7
2023-03-17T08:34:38.316Z,4.6
2023-03-17T08:35:39.728Z,4.0
2023-03-17T08:36:38.008Z,4.8
2023-03-17T08:37:38.605Z,3.9
2023-03-17T08:38:39.200Z,5.1
2023-03-17T08:39:38.404Z,4.8
2023-03-17T08:40:38.243Z,4.6
2023-03-17T08:41:38.789Z,4.8
2023-03-17T08:42:38.736Z,4.2
2023-03-17T08:43:38.552Z,5.3
2023-03-17T08:44:38.124Z,4.2
2023-03-17T08:45:38.360Z,4.0
2023-03-17T08:46:38.638Z,5.6
2023-03-17T08:47:38.888Z,4.1
2023-03-17T08:48:38.303Z,6.4
2023-03-17T08:49:38.525Z,4.1
2023-03-17T08:50:38.509Z,3.7
2023-03-17T08:51:38.134Z,4.9
2023-03-17T08:52:38.034Z,5.4
2023-03-17T08:53:39.101Z,4.4
2023-03-17T08:54:38.494Z,4.0
2023-03-17T08:55:38.446Z,3.5
2023-03-17T08:56:39.243Z,5.2
2023-03-17T08:57:38.740Z,4.7
2023-03-17T08:58:38.936Z,3.3
2023-03-17T08:59:38.504Z,3.6
2023-03-17T09:00:38.240Z,5.2
2023-03-17T09:01:38.071Z,4.5
2023-03-17T09:02:40.501Z,4.4
2023-03-17T09:03:38.581Z,3.8
2023-03-17T09:04:40.081Z,4.9
2023-03-17T09:05:38.684Z,5.1
2023-03-17T09:06:38.819Z,4.5
2023-03-17T09:07:39.170Z,4.6
2023-03-17T09:08:42.099Z,3.2
2023-03-17T09:09:38.661Z,4.1
2023-03-17T09:10:38.326Z,3.9
2023-03-17T09:11:38.806Z,5.0
2023-03-17T09:12:38.553Z,4.4
2023-03-17T09:13:38.349Z,4.5
2023-03-17T09:14:43.918Z,3.6
2023-03-17T09:15:38.024Z,4.1
2023-03-17T09:16:38.661Z,3.9
2023-03-17T09:17:38.730Z,3.6
2023-03-17T09:18:38.431Z,3.1
2023-03-17T09:19:38.130Z,3.6
2023-03-17T09:20:37.918Z,3.5
2023-03-17T09:21:38.644Z,3.8
2023-03-17T09:22:38.500Z,3.9
2023-03-17T09:23:38.671Z,4.2
2023-03-17T09:24:38.065Z,4.9
2023-03-17T09:25:38.730Z,4.7
2023-03-17T09:26:38.539Z,3.3
2023-03-17T09:27:38.400Z,4.6
2023-03-17T09:28:38.202Z,3.7
2023-03-17T09:29:38.134Z,3.4
2023-03-17T09:30:41.878Z,3.7
2023-03-17T09:31:38.178Z,5.2
2023-03-17T09:32:39.332Z,3.5
2023-03-17T09:33:38.901Z,3.9
2023-03-17T09:34:38.408Z,5.0
2023-03-17T09:35:38.516Z,3.4
2023-03-17T09:36:38.020Z,5.0
2023-03-17T09:37:38.759Z,4.3
2023-03-17T09:38:38.526Z,4.1
2023-03-17T09:39:38.339Z,2.9
2023-03-17T09:40:46.168Z,3.3
2023-03-17T09:41:45.613Z,4.3
2023-03-17T09:42:49.144Z,3.6
2023-03-17T09:43:44.597Z,3.0
2023-03-17T09:44:52.081Z,3.7
2023-03-17T09:45:43.444Z,3.9
2023-03-17T09:46:45.635Z,4.5
2023-03-17T09:47:43.412Z,4.7
2023-03-17T09:48:43.072Z,4.6
2023-03-17T09:49:44.198Z,3.6
2023-03-17T09:50:42.936Z,3.6
2023-03-17T09:51:39.116Z,4.0
2023-03-17T09:52:38.562Z,3.3
2023-03-17T09:53:50.431Z,4.3
2023-03-17T09:54:38.189Z,3.2
2023-03-17T09:55:38.283Z,3.4
2023-03-17T09:56:40.455Z,4.1
2023-03-17T09:57:39.911Z,2.8
2023-03-17T09:58:39.692Z,3.5
2023-03-17T09:59:40.063Z,3.8
2023-03-17T10:00:38.790Z,4.5
2023-03-17T10:01:39.805Z,3.6
2023-03-17T10:02:38.405Z,4.5
2023-03-17T10:03:38.503Z,2.9
2023-03-17T10:04:38.044Z,3.7
2023-03-17T10:05:38.697Z,3.7
2023-03-17T10:06:41.217Z,4.3
2023-03-17T10:07:41.082Z,3.1
2023-03-17T10:08:43.000Z,3.6
2023-03-17T10:09:59.780Z,4.0
2023-03-17T10:10:52.086Z,3.4
2023-03-17T10:11:40.222Z,3.2
2023-03-17T10:12:43.126Z,3.1
2023-03-17T10:13:48.615Z,3.3
2023-03-17T10:14:52.633Z,3.5
2023-03-17T10:15:42.635Z,3.0
2023-03-17T10:16:51.318Z,3.5
2023-03-17T10:17:39.078Z,2.4
2023-03-17T10:18:54.833Z,2.4
2023-03-17T10:19:46.177Z,4.2
2023-03-17T10:20:53.272Z,3.3
2023-03-17T10:21:42.835Z,1.8
2023-03-17T10:22:41.398Z,3.3
2023-03-17T10:23:38.035Z,3.5
2023-03-17T10:24:42.204Z,2.4
2023-03-17T10:25:38.482Z,3.2
2023-03-17T10:26:45.632Z,2.4
2023-03-17T10:27:38.070Z,3.1
2023-03-17T10:28:38.751Z,3.3
2023-03-17T10:29:38.513Z,4.0
2023-03-17T10:30:38.468Z,4.8
2023-03-17T10:31:38.263Z,3.2
2023-03-17T10:32:38.411Z,4.6
2023-03-17T10:33:38.777Z,3.5
2023-03-17T10:34:39.032Z,2.4
2023-03-17T10:35:38.318Z,2.9
2023-03-17T10:36:38.746Z,3.0
2023-03-17T10:37:38.960Z,3.2
2023-03-17T10:38:38.522Z,2.3
2023-03-17T10:39:43.288Z,2.4
2023-03-17T10:40:38.205Z,3.4
2023-03-17T10:41:39.737Z,3.4
2023-03-17T10:42:48.228Z,2.7
2023-03-17T10:43:43.341Z,3.0
2023-03-17T10:44:43.174Z,3.3
2023-03-17T10:45:40.944Z,2.8
2023-03-17T10:46:49.622Z,3.2
2023-03-17T10:47:46.585Z,3.8
2023-03-17T10:48:38.428Z,3.6
2023-03-17T10:49:38.203Z,3.9
2023-03-17T10:50:38.572Z,1.8
2023-03-17T10:51:38.634Z,3.4
2023-03-17T10:52:38.709Z,3.4
2023-03-17T10:53:39.287Z,3.5
2023-03-17T10:54:38.037Z,3.5
2023-03-17T10:55:48.865Z,2.8
2023-03-17T10:56:39.975Z,2.6
2023-03-17T10:57:39.051Z,3.2
2023-03-17T10:58:39.236Z,2.6
2023-03-17T10:59:43.503Z,2.8
2023-03-17T11:00:43.663Z,2.5
2023-03-17T11:01:39.267Z,3.2
2023-03-17T11:02:42.941Z,3.9
2023-03-17T11:03:38.660Z,2.7
2023-03-17T11:04:39.561Z,2.0
2023-03-17T11:05:39.098Z,2.6
2023-03-17T11:06:41.064Z,3.2
2023-03-17T11:07:38.941Z,2.4
2023-03-17T11:08:44.623Z,2.9
2023-03-17T11:09:38.627Z,3.6
2023-03-17T11:10:39.244Z,3.8
2023-03-17T11:11:48.440Z,2.6
2023-03-17T11:12:38.867Z,2.3
2023-03-17T11:13:38.841Z,2.6
2023-03-17T11:14:41.917Z,3.7
2023-03-17T11:15:43.898Z,2.7
2023-03-17T11:16:49.217Z,2.6
2023-03-17T11:17:48.646Z,2.4
2023-03-17T11:18:38.962Z,4.0
2023-03-17T11:19:46.116Z,2.0
2023-03-17T11:20:45.641Z,3.5
2023-03-17T11:21:56.099Z,2.9
2023-03-17T11:22:39.817Z,2.5
2023-03-17T11:23:46.157Z,3.2
2023-03-17T11:24:42.878Z,2.1
2023-03-17T11:25:40.166Z,3.9
2023-03-17T11:26:48.659Z,3.3
2023-03-17T11:27:46.140Z,1.9
2023-03-17T11:28:40.089Z,2.9
2023-03-17T11:29:43.172Z,3.0
2023-03-17T11:30:48.669Z,2.2
2023-03-17T11:31:52.649Z,1.8
2023-03-17T11:32:43.021Z,2.2
2023-03-17T11:33:58.158Z,2.3
2023-03-17T11:34:45.656Z,3.0
2023-03-17T11:35:42.915Z,2.6
2023-03-17T11:36:43.379Z,2.7
2023-03-17T11:37:56.569Z,2.4
2023-03-17T11:38:46.154Z,1.8
2023-03-17T11:39:45.643Z,2.8
2023-03-17T11:40:55.640Z,3.1
2023-03-17T11:41:48.054Z,2.7
2023-03-17T11:42:55.994Z,2.1
2023-03-17T11:43:45.700Z,3.4
2023-03-17T11:44:42.945Z,5.2
2023-03-17T11:45:43.601Z,2.7
2023-03-17T11:47:01.224Z,2.5
2023-03-17T11:47:45.661Z,2.3
2023-03-17T11:48:48.629Z,2.0
2023-03-17T11:49:39.690Z,2.3
2023-03-17T11:50:43.501Z,3.0
2023-03-17T11:51:43.251Z,2.5
2023-03-17T11:52:43.077Z,1.6
2023-03-17T11:53:45.720Z,1.7
2023-03-17T11:54:43.502Z,2.4
2023-03-17T11:55:46.258Z,2.6
2023-03-17T11:56:45.684Z,1.8
2023-03-17T11:57:43.012Z,2.0
2023-03-17T11:58:41.183Z,2.4
2023-03-17T11:59:41.540Z,2.8
2023-03-17T12:00:44.614Z,3.2
2023-03-17T12:01:43.052Z,2.5
2023-03-17T12:02:40.493Z,1.8
2023-03-17T12:03:47.127Z,1.8
2023-03-17T12:04:43.491Z,2.4
2023-03-17T12:05:38.549Z,2.2
2023-03-17T12:06:42.367Z,1.9
2023-03-17T12:07:45.771Z,1.7
2023-03-17T12:08:41.176Z,2.6
2023-03-17T12:09:43.312Z,3.7
2023-03-17T12:10:48.670Z,1.6
2023-03-17T12:11:40.500Z,1.9
2023-03-17T12:12:41.560Z,3.2
2023-03-17T12:13:45.063Z,2.0
2023-03-17T12:14:43.649Z,2.0
2023-03-17T12:15:51.533Z,1.8
2023-03-17T12:16:57.137Z,2.6
2023-03-17T12:17:43.040Z,3.2
2023-03-17T12:18:45.899Z,3.0
2023-03-17T12:19:57.689Z,2.1
2023-03-17T12:20:42.960Z,2.5
2023-03-17T12:21:43.567Z,3.2
2023-03-17T12:22:43.463Z,3.7
2023-03-17T12:23:48.335Z,1.9
2023-03-17T12:24:40.957Z,1.9
2023-03-17T12:25:49.709Z,2.2
2023-03-17T12:26:43.512Z,2.4
2023-03-17T12:27:55.170Z,2.6
2023-03-17T12:28:43.049Z,1.5
2023-03-17T12:29:46.272Z,1.9
2023-03-17T12:30:49.159Z,3.4
2023-03-17T12:31:41.873Z,3.0
2023-03-17T12:32:43.277Z,2.0
2023-03-17T12:33:45.674Z,3.4
2023-03-17T12:34:51.043Z,2.8
2023-03-17T12:35:38.777Z,3.3
2023-03-17T12:36:38.589Z,2.5
2023-03-17T12:37:38.473Z,1.9
2023-03-17T12:38:42.864Z,2.2
2023-03-17T12:39:41.385Z,2.7
2023-03-17T12:40:43.378Z,2.0
2023-03-17T12:41:46.159Z,3.4
2023-03-17T12:42:54.732Z,2.3
2023-03-17T12:43:52.765Z,1.9
2023-03-17T12:44:56.603Z,2.1
2023-03-17T12:45:43.313Z,2.9
2023-03-17T12:46:42.464Z,2.2
2023-03-17T12:47:51.759Z,2.7
2023-03-17T12:48:56.599Z,3.5
2023-03-17T12:49:43.369Z,2.3
2023-03-17T12:50:56.118Z,2.0
2023-03-17T12:51:56.089Z,2.7
2023-03-17T12:52:52.700Z,2.7
2023-03-17T12:53:40.342Z,2.2
2023-03-17T12:54:42.671Z,1.5
2023-03-17T12:55:38.427Z,1.4
2023-03-17T12:56:42.738Z,2.0
2023-03-17T12:57:42.711Z,1.6
2023-03-17T12:58:43.283Z,1.2
2023-03-17T12:59:41.355Z,2.9
2023-03-17T13:00:42.972Z,1.9
2023-03-17T13:01:41.526Z,1.7
2023-03-17T13:02:38.815Z,1.7
2023-03-17T13:03:43.370Z,1.9
2023-03-17T13:04:38.232Z,1.9
2023-03-17T13:05:38.116Z,1.5
2023-03-17T13:06:41.128Z,2.2
2023-03-17T13:07:55.180Z,2.1
2023-03-17T13:08:39.483Z,2.2
2023-03-17T13:09:45.661Z,1.6
2023-03-17T13:10:45.228Z,2.7
2023-03-17T13:11:46.178Z,2.4
2023-03-17T13:12:46.246Z,1.9
2023-03-17T13:13:45.432Z,2.1
2023-03-17T13:14:45.218Z,1.6
2023-03-17T13:15:43.672Z,1.7
2023-03-17T13:16:39.601Z,1.2
2023-03-17T13:17:38.412Z,1.3
2023-03-17T13:18:43.035Z,1.8
2023-03-17T13:19:43.752Z,2.0
2023-03-17T13:20:41.175Z,0.7
2023-03-17T13:21:42.564Z,2.0
2023-03-17T13:22:39.786Z,3.1
2023-03-17T13:23:45.693Z,1.6
2023-03-17T13:24:42.725Z,1.4
2023-03-17T13:25:43.346Z,2.3
2023-03-17T13:26:55.331Z,2.7
2023-03-17T13:27:41.998Z,0.8
2023-03-17T13:28:40.176Z,2.0
2023-03-17T13:29:41.574Z,1.2
2023-03-17T13:30:43.165Z,1.9
2023-03-17T13:31:38.308Z,0.6
2023-03-17T13:32:38.216Z,1.6
2023-03-17T13:33:46.183Z,1.3
2023-03-17T13:34:42.982Z,2.5
2023-03-17T13:35:43.636Z,1.4
2023-03-17T13:36:49.156Z,1.3
2023-03-17T13:37:46.182Z,1.3
2023-03-17T13:39:00.035Z,1.6
2023-03-17T13:39:56.157Z,1.4
2023-03-17T13:40:52.182Z,1.1
2023-03-17T13:41:51.841Z,1.8
2023-03-17T13:42:51.705Z,1.6
2023-03-17T13:43:43.600Z,1.6
2023-03-17T13:44:55.293Z,3.0
2023-03-17T13:45:39.444Z,1.3
2023-03-17T13:46:43.265Z,0.9